createdAt,value
2023-11-27T00:00:48.411Z,0.50
2023-11-27T00:03:15.130Z,0.50
2023-11-27T00:05:41.849Z,0.50
2023-11-27T00:08:10.259Z,0.50
2023-11-27T00:10:38.302Z,0.50
2023-11-27T00:13:05.042Z,0.50
2023-11-27T00:15:31.752Z,0.50
2023-11-27T00:17:58.533Z,0.50
2023-11-27T00:20:25.290Z,0.50
2023-11-27T00:22:51.981Z,0.60
2023-11-27T00:25:18.682Z,0.60
2023-11-27T00:27:45.502Z,0.50
2023-11-27T00:30:13.137Z,0.50
2023-11-27T00:32:40.292Z,0.50
2023-11-27T00:35:07.498Z,0.60
2023-11-27T00:37:34.298Z,0.60
2023-11-27T00:40:01.084Z,0.60
2023-11-27T00:42:27.925Z,0.60
2023-11-27T00:44:54.753Z,0.60
2023-11-27T00:47:21.475Z,0.70
2023-11-27T00:49:48.175Z,0.70
2023-11-27T00:52:14.919Z,0.70
2023-11-27T00:54:41.716Z,0.70
2023-11-27T00:57:09.213Z,0.70
2023-11-27T00:59:35.960Z,0.70
2023-11-27T01:02:02.744Z,0.70
2023-11-27T01:04:29.540Z,0.80
2023-11-27T01:06:56.265Z,0.70
2023-11-27T01:09:22.984Z,0.70
2023-11-27T01:11:49.689Z,0.80
2023-11-27T01:14:16.401Z,0.80
2023-11-27T01:16:43.144Z,0.80
2023-11-27T01:19:10.172Z,0.90
2023-11-27T01:21:36.941Z,0.90
2023-11-27T01:24:03.770Z,0.90
2023-11-27T01:26:30.469Z,0.80
2023-11-27T01:28:57.138Z,0.80
2023-11-27T01:31:24.829Z,0.90
2023-11-27T01:33:51.703Z,0.90
2023-11-27T01:36:21.690Z,0.90
2023-11-27T01:38:48.438Z,1.00
2023-11-27T01:41:15.157Z,0.90
2023-11-27T01:43:42.196Z,0.90
2023-11-27T01:46:24.131Z,1.00
2023-11-27T01:48:52.999Z,1.00
2023-11-27T01:51:21.321Z,0.90
2023-11-27T01:53:48.866Z,1.00
2023-11-27T01:56:16.906Z,1.00
2023-11-27T01:58:45.573Z,1.00
2023-11-27T02:01:12.385Z,1.00
2023-11-27T02:03:39.107Z,1.00
2023-11-27T02:06:06.066Z,1.00
2023-11-27T02:08:32.839Z,1.00
2023-11-27T02:10:59.762Z,1.00
2023-11-27T02:13:26.681Z,1.00
2023-11-27T02:15:54.076Z,1.00
2023-11-27T02:18:21.310Z,1.00
2023-11-27T02:20:48.037Z,1.00
2023-11-27T02:23:17.060Z,1.00
2023-11-27T02:25:44.034Z,1.00
2023-11-27T02:28:10.881Z,1.00
2023-11-27T02:30:37.827Z,1.00
2023-11-27T02:33:04.654Z,0.90
2023-11-27T02:35:34.626Z,1.00
2023-11-27T02:38:02.970Z,0.90
2023-11-27T02:40:30.949Z,0.90
2023-11-27T02:42:57.794Z,0.90
2023-11-27T02:45:24.745Z,0.90
2023-11-27T02:47:51.463Z,0.90
2023-11-27T02:50:18.454Z,0.80
2023-11-27T02:52:45.540Z,0.80
2023-11-27T02:55:12.612Z,0.80
2023-11-27T02:57:39.334Z,0.80
2023-11-27T03:00:06.753Z,0.80
2023-11-27T03:02:33.643Z,0.80
2023-11-27T03:05:00.477Z,0.70
2023-11-27T03:07:27.184Z,0.70
2023-11-27T03:09:54.771Z,0.70
2023-11-27T03:12:21.476Z,0.70
2023-11-27T03:14:48.202Z,0.60
2023-11-27T03:17:14.963Z,0.60
2023-11-27T03:19:47.587Z,0.60
2023-11-27T03:22:15.587Z,0.50
2023-11-27T03:24:42.358Z,0.50
2023-11-27T03:27:09.069Z,0.50
2023-11-27T03:29:35.805Z,0.50
2023-11-27T03:32:02.565Z,0.50
2023-11-27T03:34:29.568Z,0.50
2023-11-27T03:36:56.342Z,0.40
2023-11-27T03:39:23.071Z,0.40
2023-11-27T03:41:52.162Z,0.40
2023-11-27T03:44:18.954Z,0.40
2023-11-27T03:46:46.216Z,0.40
2023-11-27T03:49:13.413Z,0.40
2023-11-27T03:51:40.249Z,0.40
2023-11-27T03:54:07.044Z,0.40
2023-11-27T03:56:33.749Z,0.40
2023-11-27T03:59:00.461Z,0.30
2023-11-27T04:01:27.205Z,0.30
2023-11-27T04:03:54.847Z,0.30
2023-11-27T04:06:28.332Z,0.30
2023-11-27T04:08:55.033Z,0.30
2023-11-27T04:11:22.022Z,0.40
2023-11-27T04:13:48.834Z,0.30
2023-11-27T04:16:15.629Z,0.40
2023-11-27T04:18:42.383Z,0.40
2023-11-27T04:21:09.583Z,0.40
2023-11-27T04:23:36.296Z,0.40
2023-11-27T04:26:03.045Z,0.40
2023-11-27T04:28:29.767Z,0.40
2023-11-27T04:30:56.491Z,0.40
2023-11-27T04:33:23.184Z,0.40
2023-11-27T04:35:52.767Z,0.40
2023-11-27T04:38:21.116Z,0.50
2023-11-27T04:40:47.819Z,0.50
2023-11-27T04:43:14.570Z,0.50
2023-11-27T04:45:41.300Z,0.50
2023-11-27T04:48:08.005Z,0.50
2023-11-27T04:50:34.741Z,0.50
2023-11-27T04:53:01.538Z,0.50
2023-11-27T04:55:28.617Z,0.50
2023-11-27T04:57:55.389Z,0.50
2023-11-27T05:00:22.174Z,0.50
2023-11-27T05:02:48.965Z,0.50
2023-11-27T05:05:15.882Z,0.50
2023-11-27T05:07:43.121Z,0.50
2023-11-27T05:10:10.571Z,0.60
2023-11-27T05:12:37.331Z,0.60
2023-11-27T05:15:04.376Z,0.60
2023-11-27T05:17:31.444Z,0.60
2023-11-27T05:19:58.202Z,0.60
2023-11-27T05:22:25.037Z,0.60
2023-11-27T05:24:51.850Z,0.60
2023-11-27T05:27:18.598Z,0.60
2023-11-27T05:29:45.307Z,0.60
2023-11-27T05:32:11.979Z,0.60
2023-11-27T05:34:38.785Z,0.50
2023-11-27T05:37:05.702Z,0.50
2023-11-27T05:39:32.440Z,0.50
2023-11-27T05:41:59.196Z,0.50
2023-11-27T05:44:25.876Z,0.40
2023-11-27T05:46:52.650Z,0.40
2023-11-27T05:49:19.530Z,0.50
2023-11-27T05:51:46.261Z,0.50
2023-11-27T05:54:13.107Z,0.50
2023-11-27T05:56:39.830Z,0.50
2023-11-27T05:59:06.566Z,0.50
2023-11-27T06:01:33.291Z,0.50
2023-11-27T06:04:00.189Z,0.50
2023-11-27T06:06:27.168Z,0.50
2023-11-27T06:08:54.717Z,0.50
2023-11-27T06:11:21.453Z,0.50
2023-11-27T06:13:48.151Z,0.50
2023-11-27T06:16:14.903Z,0.50
2023-11-27T06:18:41.711Z,0.50
2023-11-27T06:21:11.083Z,0.50
2023-11-27T06:23:37.799Z,0.50
2023-11-27T06:26:04.790Z,0.40
2023-11-27T06:28:31.523Z,0.40
2023-11-27T06:30:58.317Z,0.40
2023-11-27T06:33:25.228Z,0.50
2023-11-27T06:35:52.094Z,0.50
2023-11-27T06:38:18.795Z,0.50
2023-11-27T06:40:47.986Z,0.50
2023-11-27T06:43:16.279Z,0.50
2023-11-27T06:45:43.127Z,0.60
2023-11-27T06:48:09.972Z,0.60
2023-11-27T06:50:36.745Z,0.60
2023-11-27T06:53:03.565Z,0.60
2023-11-27T06:55:30.684Z,0.60
2023-11-27T06:57:57.668Z,0.70
2023-11-27T07:00:24.869Z,0.70
2023-11-27T07:02:51.704Z,0.60
2023-11-27T07:05:18.476Z,0.60
2023-11-27T07:07:45.175Z,0.70
2023-11-27T07:10:11.956Z,0.70
2023-11-27T07:12:38.672Z,0.70
2023-11-27T07:15:05.987Z,0.80
2023-11-27T07:17:32.694Z,0.80
2023-11-27T07:19:59.404Z,0.80
2023-11-27T07:22:26.142Z,0.80
2023-11-27T07:24:52.901Z,0.80
2023-11-27T07:27:20.834Z,0.90
2023-11-27T07:29:47.565Z,0.90
2023-11-27T07:32:14.427Z,0.80
2023-11-27T07:34:43.344Z,0.90
2023-11-27T07:37:10.144Z,0.90
2023-11-27T07:39:38.237Z,1.00
2023-11-27T07:42:07.544Z,0.90
2023-11-27T07:44:36.768Z,1.00
2023-11-27T07:47:11.132Z,1.00
2023-11-27T07:49:37.963Z,1.10
2023-11-27T07:52:06.169Z,1.20
2023-11-27T07:54:37.050Z,1.20
2023-11-27T07:57:08.239Z,1.20
2023-11-27T07:59:35.103Z,1.30
2023-11-27T08:02:01.987Z,1.30
2023-11-27T08:04:33.620Z,1.30
2023-11-27T08:07:01.054Z,1.40
2023-11-27T08:09:28.187Z,1.40
2023-11-27T08:11:55.055Z,1.40
2023-11-27T08:14:24.289Z,1.50
2023-11-27T08:16:51.463Z,1.40
2023-11-27T08:19:21.942Z,1.50
2023-11-27T08:21:48.905Z,1.50
2023-11-27T08:24:15.714Z,1.50
2023-11-27T08:26:43.213Z,1.50
2023-11-27T08:29:10.458Z,1.50
2023-11-27T08:31:37.378Z,1.50
2023-11-27T08:34:04.203Z,1.60
2023-11-27T08:36:30.951Z,1.60
2023-11-27T08:38:57.768Z,1.60
2023-11-27T08:41:25.252Z,1.60
2023-11-27T08:43:52.032Z,1.60
2023-11-27T08:46:19.005Z,1.70
2023-11-27T08:48:45.946Z,1.70
2023-11-27T08:51:12.717Z,1.70
2023-11-27T08:53:39.493Z,1.70
2023-11-27T08:56:06.871Z,1.70
2023-11-27T08:58:33.686Z,1.70
2023-11-27T09:01:00.673Z,1.70
2023-11-27T09:03:27.759Z,1.70
2023-11-27T09:05:54.727Z,1.70
2023-11-27T09:08:21.465Z,1.80
2023-11-27T09:26:21.429Z,1.80
2023-11-27T09:40:48.377Z,1.90
2023-11-27T09:47:49.629Z,2.00
2023-11-27T09:50:19.743Z,2.10
2023-11-27T09:52:57.329Z,2.20
2023-11-27T09:55:25.549Z,2.30
2023-11-27T09:57:53.516Z,2.30
2023-11-27T10:00:20.837Z,2.30
2023-11-27T10:02:48.836Z,2.40
2023-11-27T10:05:20.509Z,2.40
2023-11-27T10:07:53.558Z,2.50
2023-11-27T10:10:30.388Z,2.60
2023-11-27T10:12:58.672Z,2.50
2023-11-27T10:15:31.758Z,2.70
2023-11-27T10:18:03.968Z,2.60
2023-11-27T10:20:35.062Z,2.70
2023-11-27T10:23:14.723Z,2.70
2023-11-27T10:25:49.649Z,2.70
2023-11-27T10:28:39.475Z,2.80
2023-11-27T10:31:12.008Z,2.80
2023-11-27T10:33:48.508Z,2.80
2023-11-27T10:36:15.531Z,2.80
2023-11-27T10:38:42.474Z,2.80
2023-11-27T10:41:09.631Z,2.90
2023-11-27T10:43:38.350Z,2.90
2023-11-27T10:46:07.496Z,2.80
2023-11-27T10:48:43.705Z,2.90
2023-11-27T10:51:13.441Z,2.90
2023-11-27T10:53:44.041Z,3.00
2023-11-27T10:56:14.281Z,3.00
2023-11-27T10:58:41.990Z,3.00
2023-11-27T11:01:10.494Z,3.00
2023-11-27T11:03:40.481Z,3.10
2023-11-27T11:06:10.556Z,3.10
2023-11-27T11:08:38.124Z,3.10
2023-11-27T11:11:06.231Z,3.20
2023-11-27T11:13:35.307Z,3.20
2023-11-27T11:16:18.646Z,3.20
2023-11-27T11:19:06.043Z,3.10
2023-11-27T11:21:49.926Z,3.20
2023-11-27T11:24:32.486Z,3.10
2023-11-27T11:27:24.614Z,3.20
2023-11-27T11:29:55.830Z,3.10
2023-11-27T11:32:22.710Z,3.10
2023-11-27T11:34:53.269Z,3.00
2023-11-27T11:37:20.281Z,3.10
2023-11-27T11:39:49.081Z,3.10
2023-11-27T11:42:19.510Z,3.00
2023-11-27T11:45:11.722Z,3.00
2023-11-27T11:47:38.795Z,3.00
2023-11-27T11:50:21.941Z,3.00
2023-11-27T11:52:49.414Z,3.00
2023-11-27T11:55:31.273Z,3.00
2023-11-27T11:58:03.185Z,3.00
2023-11-27T12:00:30.865Z,3.00
2023-11-27T12:03:01.487Z,3.00
2023-11-27T12:05:29.251Z,3.00
2023-11-27T12:07:58.072Z,3.00
2023-11-27T12:10:25.074Z,3.00
2023-11-27T12:12:52.013Z,3.00
2023-11-27T12:15:19.026Z,2.90
2023-11-27T12:17:46.982Z,2.80
2023-11-27T12:20:14.099Z,2.90
2023-11-27T12:22:44.220Z,2.90
2023-11-27T12:25:11.063Z,2.90
2023-11-27T12:27:37.887Z,2.80
2023-11-27T12:30:05.244Z,2.80
2023-11-27T12:32:32.223Z,2.80
2023-11-27T12:35:00.308Z,2.70
2023-11-27T12:37:27.257Z,2.70
2023-11-27T12:39:54.908Z,2.70
2023-11-27T12:42:21.957Z,2.80
2023-11-27T12:44:50.659Z,2.80
2023-11-27T12:47:20.748Z,2.80
2023-11-27T12:49:51.578Z,2.80
2023-11-27T12:52:18.996Z,2.80
2023-11-27T12:54:47.858Z,2.90
2023-11-27T12:57:15.438Z,2.90
2023-11-27T12:59:42.299Z,2.80
2023-11-27T13:02:09.741Z,2.70
2023-11-27T13:04:36.781Z,2.80
2023-11-27T13:07:18.652Z,2.80
2023-11-27T13:09:59.062Z,2.80
2023-11-27T13:12:27.919Z,2.80
2023-11-27T13:15:03.192Z,2.80
2023-11-27T13:18:07.924Z,2.80
2023-11-27T13:21:00.141Z,2.80
2023-11-27T13:23:27.366Z,2.80
2023-11-27T13:25:59.894Z,2.80
2023-11-27T13:28:27.257Z,2.80
2023-11-27T13:30:56.682Z,2.80
2023-11-27T13:33:30.097Z,2.80
2023-11-27T13:35:59.322Z,2.80
2023-11-27T13:38:29.024Z,2.80
2023-11-27T13:40:56.425Z,2.80
2023-11-27T13:43:24.833Z,2.80
2023-11-27T13:45:54.348Z,2.80
2023-11-27T13:48:22.165Z,2.80
2023-11-27T13:50:50.442Z,2.80
2023-11-27T13:53:18.736Z,2.80
2023-11-27T13:55:48.731Z,2.80
2023-11-27T13:58:17.395Z,2.70
2023-11-27T14:00:51.010Z,2.70
2023-11-27T14:03:31.835Z,2.70
2023-11-27T14:06:02.818Z,2.70
2023-11-27T14:08:30.019Z,2.60
2023-11-27T14:11:25.498Z,2.60
2023-11-27T14:14:03.089Z,2.60
2023-11-27T14:16:39.990Z,2.60
2023-11-27T14:19:11.862Z,2.60
2023-11-27T14:21:45.203Z,2.60
2023-11-27T14:27:30.308Z,2.50
2023-11-27T14:29:57.199Z,2.50
2023-11-27T14:32:31.332Z,2.50
2023-11-27T14:34:58.386Z,2.40
2023-11-27T14:37:29.429Z,2.50
2023-11-27T14:39:56.572Z,2.50
2023-11-27T14:42:24.014Z,2.50
2023-11-27T14:44:54.133Z,2.50
2023-11-27T14:47:23.900Z,2.50
2023-11-27T14:50:05.216Z,2.50
2023-11-27T14:53:07.301Z,2.50
2023-11-27T14:56:03.681Z,2.50
2023-11-27T14:58:34.267Z,2.50
2023-11-27T15:01:18.793Z,2.40
2023-11-27T15:04:13.419Z,2.40
2023-11-27T15:06:42.821Z,2.30
2023-11-27T15:09:11.959Z,2.40
2023-11-27T15:11:41.697Z,2.30
2023-11-27T15:14:08.763Z,2.40
2023-11-27T15:16:35.697Z,2.30
2023-11-27T15:19:02.711Z,2.30
2023-11-27T15:21:29.604Z,2.30
2023-11-27T15:23:56.619Z,2.30
2023-11-27T15:26:23.976Z,2.30
2023-11-27T15:28:51.025Z,2.20
2023-11-27T15:31:18.707Z,2.30
2023-11-27T15:33:46.850Z,2.30
2023-11-27T15:36:13.904Z,2.30
2023-11-27T15:38:42.235Z,2.40
2023-11-27T15:41:09.346Z,2.30
2023-11-27T15:43:36.458Z,2.20
2023-11-27T15:46:07.426Z,2.20
2023-11-27T15:48:36.998Z,2.20
2023-11-27T15:51:06.561Z,2.10
2023-11-27T15:53:33.368Z,2.10
2023-11-27T15:56:00.436Z,2.10
2023-11-27T15:58:30.462Z,2.10
2023-11-27T16:00:57.334Z,2.00
2023-11-27T16:03:26.312Z,2.10
2023-11-27T16:05:54.764Z,2.10
2023-11-27T16:08:21.634Z,2.00
2023-11-27T16:10:48.562Z,2.00
2023-11-27T16:15:47.362Z,1.90
2023-11-27T16:18:14.965Z,1.90
2023-11-27T16:20:42.332Z,1.90
2023-11-27T16:23:10.009Z,2.00
2023-11-27T16:25:36.984Z,1.90
2023-11-27T16:28:04.504Z,2.00
2023-11-27T16:30:34.507Z,2.00
2023-11-27T16:33:01.391Z,2.00
2023-11-27T16:35:28.408Z,2.00
2023-11-27T16:37:55.295Z,2.00
2023-11-27T16:40:22.486Z,2.00
2023-11-27T16:42:52.439Z,2.00
2023-11-27T16:45:22.347Z,2.00
2023-11-27T16:47:50.309Z,2.00
2023-11-27T16:50:17.165Z,2.10
2023-11-27T16:52:45.436Z,2.00
2023-11-27T16:55:17.116Z,2.00
2023-11-27T16:57:44.278Z,2.00
2023-11-27T17:00:11.816Z,2.00
2023-11-27T17:02:38.784Z,1.90
2023-11-27T17:05:06.119Z,1.90
2023-11-27T17:07:32.991Z,2.00
2023-11-27T17:09:59.864Z,2.00
2023-11-27T17:12:26.664Z,2.00
2023-11-27T17:14:53.691Z,2.00
2023-11-27T17:17:23.729Z,2.00
2023-11-27T17:19:50.649Z,2.00
2023-11-27T17:22:17.515Z,2.00
2023-11-27T17:24:44.412Z,2.00
2023-11-27T17:27:11.300Z,2.00
2023-11-27T17:29:38.101Z,2.00
2023-11-27T17:32:05.072Z,2.00
2023-11-27T17:34:31.898Z,2.00
2023-11-27T17:36:58.674Z,2.00
2023-11-27T17:39:25.430Z,2.10
2023-11-27T17:41:52.212Z,2.10
2023-11-27T17:44:19.073Z,2.00
2023-11-27T17:46:48.732Z,2.00
2023-11-27T17:49:18.555Z,2.00
2023-11-27T17:51:45.520Z,2.00
2023-11-27T17:54:12.431Z,1.90
2023-11-27T17:56:41.969Z,1.90
2023-11-27T17:59:13.438Z,1.90
2023-11-27T18:01:40.634Z,1.80
2023-11-27T18:04:07.650Z,1.80
2023-11-27T18:06:34.498Z,1.80
2023-11-27T18:09:01.373Z,1.70
2023-11-27T18:11:30.849Z,1.70
2023-11-27T18:13:57.969Z,1.70
2023-11-27T18:16:25.026Z,1.70
2023-11-27T18:18:52.170Z,1.70
2023-11-27T18:21:21.119Z,1.70
2023-11-27T18:23:48.024Z,1.70
2023-11-27T18:26:44.655Z,1.70
2023-11-27T18:29:38.660Z,1.70
2023-11-27T18:40:09.495Z,1.60
2023-11-27T19:00:44.452Z,1.60
2023-11-27T19:03:51.220Z,1.60
2023-11-27T19:07:10.288Z,1.60
2023-11-27T19:13:27.305Z,1.60
2023-11-27T19:16:21.025Z,1.60
2023-11-27T19:18:53.569Z,1.50
2023-11-27T19:24:20.182Z,1.50
2023-11-27T19:30:20.828Z,1.40
2023-11-27T19:33:01.842Z,1.40
2023-11-27T19:35:48.582Z,1.40
2023-11-27T19:38:39.499Z,1.40
2023-11-27T19:41:41.726Z,1.40
2023-11-27T19:44:31.407Z,1.40
2023-11-27T19:47:08.746Z,1.30
2023-11-27T19:49:50.168Z,1.20
2023-11-27T19:52:35.273Z,1.20
2023-11-27T20:34:41.820Z,1.00
2023-11-27T20:37:08.817Z,1.00
2023-11-27T20:39:35.524Z,1.00
2023-11-27T20:42:02.258Z,0.90
2023-11-27T20:44:28.974Z,0.90
2023-11-27T20:46:55.714Z,0.80
2023-11-27T20:49:22.480Z,0.80
2023-11-27T20:51:49.155Z,0.70
2023-11-27T20:54:15.906Z,0.70
2023-11-27T20:56:42.629Z,0.70
2023-11-27T20:59:09.316Z,0.70
2023-11-27T21:01:36.097Z,0.70
2023-11-27T21:04:03.415Z,0.70
2023-11-27T21:06:30.121Z,0.70
2023-11-27T21:08:56.814Z,0.70
2023-11-27T21:11:23.542Z,0.60
2023-11-27T21:13:50.385Z,0.60
2023-11-27T21:16:17.757Z,0.60
2023-11-27T21:18:45.045Z,0.60
2023-11-27T21:21:12.778Z,0.60
2023-11-27T21:23:39.581Z,0.60
2023-11-27T21:26:07.370Z,0.60
2023-11-27T21:28:34.320Z,0.60
2023-11-27T21:31:01.923Z,0.60
2023-11-27T21:33:28.698Z,0.60
2023-11-27T21:35:57.328Z,0.60
2023-11-27T21:38:25.488Z,0.60
2023-11-27T21:40:52.300Z,0.60
2023-11-27T21:43:19.086Z,0.60
2023-11-27T21:45:45.874Z,0.60
2023-11-27T21:48:12.601Z,0.50
2023-11-27T21:50:39.309Z,0.50
2023-11-27T21:53:06.036Z,0.50
2023-11-27T21:55:32.848Z,0.50
2023-11-27T21:57:59.610Z,0.60
2023-11-27T22:00:26.313Z,0.60
2023-11-27T22:02:53.108Z,0.60
2023-11-27T22:05:19.939Z,0.60
2023-11-27T22:07:46.774Z,0.50
2023-11-27T22:10:13.559Z,0.50
2023-11-27T22:12:40.280Z,0.60
2023-11-27T22:15:07.323Z,0.50
2023-11-27T22:17:34.113Z,0.60
2023-11-27T22:20:00.893Z,0.60
2023-11-27T22:22:27.629Z,0.60
2023-11-27T22:24:54.755Z,0.70
2023-11-27T22:27:24.281Z,0.60
2023-11-27T22:29:51.006Z,0.60
2023-11-27T22:32:17.829Z,0.60
2023-11-27T22:34:44.603Z,0.60
2023-11-27T22:37:11.310Z,0.60
2023-11-27T22:39:38.048Z,0.70
2023-11-27T22:42:07.697Z,0.60
2023-11-27T22:44:34.449Z,0.60
2023-11-27T22:47:01.280Z,0.70
2023-11-27T22:49:28.141Z,0.70
2023-11-27T22:51:57.653Z,0.70
2023-11-27T22:54:27.404Z,0.70
2023-11-27T22:56:54.761Z,0.60
2023-11-27T22:59:21.540Z,0.60
2023-11-27T23:01:48.494Z,0.60
2023-11-27T23:04:15.472Z,0.60
2023-11-27T23:06:42.168Z,0.50
2023-11-27T23:09:08.922Z,0.40
2023-11-27T23:11:35.678Z,0.50
2023-11-27T23:14:02.411Z,0.50
2023-11-27T23:16:29.245Z,0.50
2023-11-27T23:18:56.000Z,0.50
2023-11-27T23:21:22.719Z,0.50
2023-11-27T23:23:49.480Z,0.40
2023-11-27T23:26:17.451Z,0.40
2023-11-27T23:28:44.646Z,0.40
2023-11-27T23:31:11.542Z,0.40
2023-11-27T23:33:38.308Z,0.40
2023-11-27T23:36:05.577Z,0.40
2023-11-27T23:38:32.352Z,0.40
2023-11-27T23:40:59.141Z,0.40
2023-11-27T23:43:25.930Z,0.40
2023-11-27T23:45:52.687Z,0.40
2023-11-27T23:48:19.410Z,0.40
2023-11-27T23:50:47.911Z,0.40
2023-11-27T23:53:14.755Z,0.30
2023-11-27T23:55:41.529Z,0.30
2023-11-27T23:58:08.347Z,0.30
